Aérodrome :
LOGIN :

S'inscrire | Disclaimer

   EN    FR    IT 

 










Légende :    VFR   VFR Marginal   IFR   IFR Intensif   IFR Très Intensif
Visi : 
Plafond : 
>= 8 km
>= 3000ft
5 à 8 km
1000 à 3000 ft
1500m à 5 km
500 à 1000 ft
800 à 1500m
200 à 500 ft
< 800m
< 200 ft
Symboles :   Orages  Brouillard  Fortes neiges  Fortes précipitations  Vent > 20 kt
SIGMETs :   Divers  Orages  Givrage  Turbulence  Onde Orograph.  Cendres Volcan.







- Altitude de l'aérodrome : 200 ft


EBBL - Klein Brogel AB

DERNIER METAR :
  • 171433Z 21009KT 9999 FEW023 BKN050 20/16 Q1015 BLU WHT TEMPO GRN

METARs EXPIRÉS :
  • 171355Z 22011KT 9999 SCT018 BKN044 20/16 Q1015 WHT BLU TEMPO WHT
  • 171354Z 22011KT 9999 SCT018 BKN044 20/16 Q1015 WHT BLU TEMPO WHT
  • 171325Z 22011KT 9999 FEW016 BKN018 20/16 Q1015 WHT WHT TEMPO GRN
  • 171255Z 22013KT 9999 FEW016 BKN018 20/16 Q1015 WHT WHT TEMPO GRN
  • 171225Z 23011KT 8000 -RA FEW015 BKN020 19/16 Q1015 WHT WHT TEMPO GRN

TAF TAF EBBL
Valide du 17 à 13h jusqu'au 17 à 22h UTC


171141Z 1713/1722 22010G20KT 9999 FEW012 SCT020 BKN050
TEMPO 1713/1716 22015G25KT 4000 RA SCT010 BKN020
BECMG 1717/1719 23010KT 9999 SCT020 BKN100
Pas de NOTAMs connus pour ce terrain.



MET'MAP, la Météo Aéronautique d'un coup d'oeil ! - Copyright ORBIFLY Décembre 2007 - Disclaimer

ORBIFLY MET'MAP TEAM :

Programmation & Développement : Alexandra Zaïnal
Conception & Développement : Baudouin d'Aumeries
Co-Programmation & Développement : Marc-Olivier Méhu
Soutien technique & logistique : Manuel Goepfert

Contact : metmap@orbifly.com




SOURCES & CREDITS :

   NOAA